<?xml version="1.0" encoding="UTF-8" standalone="no" ?>
<gpx xmlns="http://www.topografix.com/GPX/1/1" xmlns:xsi="http://www.w3.org/2001/XMLSchema-instance" xsi:schemaLocation="http://www.topografix.com/GPX/1/1 http://www.topografix.com/GPX/1/1/gpx.xsd" version="1.1" creator="VisuGPX - https://www.visugpx.com">
  <metadata>
    <name>12580444-charbonnieres tazenat 20km</name>
  </metadata>
  <trk>
    <name><![CDATA[12580444-charbonnieres tazenat 20km]]></name>
    <trkseg>
      <trkpt lat="45.99555" lon="3.00053">
        <ele>628</ele>
        <time>2021-02-22T11:03:14Z</time>
      </trkpt>
      <trkpt lat="45.99536" lon="2.99897">
        <ele>624</ele>
        <time>2021-02-22T11:05:41Z</time>
      </trkpt>
      <trkpt lat="45.99527" lon="2.99805">
        <ele>620</ele>
        <time>2021-02-22T11:07:07Z</time>
      </trkpt>
      <trkpt lat="45.99512" lon="2.99747">
        <ele>619</ele>
        <time>2021-02-22T11:08:04Z</time>
      </trkpt>
      <trkpt lat="45.99479" lon="2.99703">
        <ele>615</ele>
        <time>2021-02-22T11:09:04Z</time>
      </trkpt>
      <trkpt lat="45.99493" lon="2.99649">
        <ele>612</ele>
        <time>2021-02-22T11:09:58Z</time>
      </trkpt>
      <trkpt lat="45.99505" lon="2.99614">
        <ele>611</ele>
        <time>2021-02-22T11:10:34Z</time>
      </trkpt>
      <trkpt lat="45.99502" lon="2.99515">
        <ele>607</ele>
        <time>2021-02-22T11:12:06Z</time>
      </trkpt>
      <trkpt lat="45.99482" lon="2.99467">
        <ele>604</ele>
        <time>2021-02-22T11:12:58Z</time>
      </trkpt>
      <trkpt lat="45.99475" lon="2.99465">
        <ele>603</ele>
        <time>2021-02-22T11:13:07Z</time>
      </trkpt>
      <trkpt lat="45.99444" lon="2.99443">
        <ele>599</ele>
        <time>2021-02-22T11:13:53Z</time>
      </trkpt>
      <trkpt lat="45.99413" lon="2.99387">
        <ele>594</ele>
        <time>2021-02-22T11:15:00Z</time>
      </trkpt>
      <trkpt lat="45.99385" lon="2.99322">
        <ele>591</ele>
        <time>2021-02-22T11:16:11Z</time>
      </trkpt>
      <trkpt lat="45.9938" lon="2.99289">
        <ele>589</ele>
        <time>2021-02-22T11:16:42Z</time>
      </trkpt>
      <trkpt lat="45.99376" lon="2.99216">
        <ele>587</ele>
        <time>2021-02-22T11:17:50Z</time>
      </trkpt>
      <trkpt lat="45.99385" lon="2.99146">
        <ele>587</ele>
        <time>2021-02-22T11:18:56Z</time>
      </trkpt>
      <trkpt lat="45.99407" lon="2.99097">
        <ele>586</ele>
        <time>2021-02-22T11:19:50Z</time>
      </trkpt>
      <trkpt lat="45.99431" lon="2.99058">
        <ele>586</ele>
        <time>2021-02-22T11:20:38Z</time>
      </trkpt>
      <trkpt lat="45.99472" lon="2.98977">
        <ele>586</ele>
        <time>2021-02-22T11:22:11Z</time>
      </trkpt>
      <trkpt lat="45.99482" lon="2.98956">
        <ele>585</ele>
        <time>2021-02-22T11:22:35Z</time>
      </trkpt>
      <trkpt lat="45.99484" lon="2.98917">
        <ele>582</ele>
        <time>2021-02-22T11:23:11Z</time>
      </trkpt>
      <trkpt lat="45.99488" lon="2.98892">
        <ele>580</ele>
        <time>2021-02-22T11:23:35Z</time>
      </trkpt>
      <trkpt lat="45.99502" lon="2.98861">
        <ele>577</ele>
        <time>2021-02-22T11:24:09Z</time>
      </trkpt>
      <trkpt lat="45.99523" lon="2.98832">
        <ele>578</ele>
        <time>2021-02-22T11:24:48Z</time>
      </trkpt>
      <trkpt lat="45.99557" lon="2.9879">
        <ele>576</ele>
        <time>2021-02-22T11:25:48Z</time>
      </trkpt>
      <trkpt lat="45.99571" lon="2.98771">
        <ele>574</ele>
        <time>2021-02-22T11:26:13Z</time>
      </trkpt>
      <trkpt lat="45.99625" lon="2.98747">
        <ele>571</ele>
        <time>2021-02-22T11:27:29Z</time>
      </trkpt>
      <trkpt lat="45.99664" lon="2.9873">
        <ele>569</ele>
        <time>2021-02-22T11:28:23Z</time>
      </trkpt>
      <trkpt lat="45.99684" lon="2.98704">
        <ele>566</ele>
        <time>2021-02-22T11:28:59Z</time>
      </trkpt>
      <trkpt lat="45.99691" lon="2.98688">
        <ele>564</ele>
        <time>2021-02-22T11:29:17Z</time>
      </trkpt>
      <trkpt lat="45.99725" lon="2.98645">
        <ele>560</ele>
        <time>2021-02-22T11:30:17Z</time>
      </trkpt>
      <trkpt lat="45.99747" lon="2.98622">
        <ele>556</ele>
        <time>2021-02-22T11:30:53Z</time>
      </trkpt>
      <trkpt lat="45.99776" lon="2.98604">
        <ele>554</ele>
        <time>2021-02-22T11:31:36Z</time>
      </trkpt>
      <trkpt lat="45.99803" lon="2.98584">
        <ele>551</ele>
        <time>2021-02-22T11:32:16Z</time>
      </trkpt>
      <trkpt lat="45.99842" lon="2.98545">
        <ele>545</ele>
        <time>2021-02-22T11:33:19Z</time>
      </trkpt>
      <trkpt lat="45.99859" lon="2.98526">
        <ele>543</ele>
        <time>2021-02-22T11:33:48Z</time>
      </trkpt>
      <trkpt lat="45.99869" lon="2.98505">
        <ele>540</ele>
        <time>2021-02-22T11:34:12Z</time>
      </trkpt>
      <trkpt lat="45.99881" lon="2.98483">
        <ele>538</ele>
        <time>2021-02-22T11:34:38Z</time>
      </trkpt>
      <trkpt lat="45.99903" lon="2.98459">
        <ele>536</ele>
        <time>2021-02-22T11:35:14Z</time>
      </trkpt>
      <trkpt lat="45.99932" lon="2.98427">
        <ele>530</ele>
        <time>2021-02-22T11:36:03Z</time>
      </trkpt>
      <trkpt lat="45.99948" lon="2.9841">
        <ele>527</ele>
        <time>2021-02-22T11:36:30Z</time>
      </trkpt>
      <trkpt lat="45.99956" lon="2.98408">
        <ele>526</ele>
        <time>2021-02-22T11:36:41Z</time>
      </trkpt>
      <trkpt lat="45.99961" lon="2.98405">
        <ele>525</ele>
        <time>2021-02-22T11:36:48Z</time>
      </trkpt>
      <trkpt lat="45.99966" lon="2.98393">
        <ele>523</ele>
        <time>2021-02-22T11:37:01Z</time>
      </trkpt>
      <trkpt lat="46.00055" lon="2.98394">
        <ele>516</ele>
        <time>2021-02-22T11:39:00Z</time>
      </trkpt>
      <trkpt lat="46.00111" lon="2.98396">
        <ele>511</ele>
        <time>2021-02-22T11:40:14Z</time>
      </trkpt>
      <trkpt lat="46.00175" lon="2.98375">
        <ele>507</ele>
        <time>2021-02-22T11:41:42Z</time>
      </trkpt>
      <trkpt lat="46.00197" lon="2.98386">
        <ele>509</ele>
        <time>2021-02-22T11:42:13Z</time>
      </trkpt>
      <trkpt lat="46.00204" lon="2.98402">
        <ele>508</ele>
        <time>2021-02-22T11:42:31Z</time>
      </trkpt>
      <trkpt lat="46.00222" lon="2.98389">
        <ele>511</ele>
        <time>2021-02-22T11:42:57Z</time>
      </trkpt>
      <trkpt lat="46.00237" lon="2.98383">
        <ele>514</ele>
        <time>2021-02-22T11:43:18Z</time>
      </trkpt>
      <trkpt lat="46.00223" lon="2.98363">
        <ele>515</ele>
        <time>2021-02-22T11:43:45Z</time>
      </trkpt>
      <trkpt lat="46.00209" lon="2.98326">
        <ele>516</ele>
        <time>2021-02-22T11:44:24Z</time>
      </trkpt>
      <trkpt lat="46.00191" lon="2.98289">
        <ele>516</ele>
        <time>2021-02-22T11:45:05Z</time>
      </trkpt>
      <trkpt lat="46.00174" lon="2.9825">
        <ele>514</ele>
        <time>2021-02-22T11:45:48Z</time>
      </trkpt>
      <trkpt lat="46.00155" lon="2.98184">
        <ele>515</ele>
        <time>2021-02-22T11:46:54Z</time>
      </trkpt>
      <trkpt lat="46.00146" lon="2.98141">
        <ele>516</ele>
        <time>2021-02-22T11:47:36Z</time>
      </trkpt>
      <trkpt lat="46.00136" lon="2.98088">
        <ele>517</ele>
        <time>2021-02-22T11:48:27Z</time>
      </trkpt>
      <trkpt lat="46.00127" lon="2.98021">
        <ele>517</ele>
        <time>2021-02-22T11:49:30Z</time>
      </trkpt>
      <trkpt lat="46.00126" lon="2.98008">
        <ele>517</ele>
        <time>2021-02-22T11:49:42Z</time>
      </trkpt>
      <trkpt lat="46.00117" lon="2.98007">
        <ele>515</ele>
        <time>2021-02-22T11:49:54Z</time>
      </trkpt>
      <trkpt lat="46.00106" lon="2.98062">
        <ele>511</ele>
        <time>2021-02-22T11:50:47Z</time>
      </trkpt>
      <trkpt lat="46.00079" lon="2.98141">
        <ele>508</ele>
        <time>2021-02-22T11:52:09Z</time>
      </trkpt>
      <trkpt lat="46.00037" lon="2.98218">
        <ele>514</ele>
        <time>2021-02-22T11:53:40Z</time>
      </trkpt>
      <trkpt lat="46.00037" lon="2.98219">
        <ele>514</ele>
        <time>2021-02-22T11:53:41Z</time>
      </trkpt>
      <trkpt lat="46.0002" lon="2.9819">
        <ele>517</ele>
        <time>2021-02-22T11:54:16Z</time>
      </trkpt>
      <trkpt lat="46.00004" lon="2.98132">
        <ele>518</ele>
        <time>2021-02-22T11:55:14Z</time>
      </trkpt>
      <trkpt lat="45.99958" lon="2.98054">
        <ele>521</ele>
        <time>2021-02-22T11:56:49Z</time>
      </trkpt>
      <trkpt lat="45.99921" lon="2.97991">
        <ele>522</ele>
        <time>2021-02-22T11:58:05Z</time>
      </trkpt>
      <trkpt lat="45.99892" lon="2.9801">
        <ele>525</ele>
        <time>2021-02-22T11:58:48Z</time>
      </trkpt>
      <trkpt lat="45.99905" lon="2.98045">
        <ele>528</ele>
        <time>2021-02-22T11:59:24Z</time>
      </trkpt>
      <trkpt lat="45.99901" lon="2.98055">
        <ele>529</ele>
        <time>2021-02-22T11:59:35Z</time>
      </trkpt>
      <trkpt lat="45.99865" lon="2.98098">
        <ele>537</ele>
        <time>2021-02-22T12:00:37Z</time>
      </trkpt>
      <trkpt lat="45.99832" lon="2.98093">
        <ele>540</ele>
        <time>2021-02-22T12:01:22Z</time>
      </trkpt>
      <trkpt lat="45.99763" lon="2.98055">
        <ele>547</ele>
        <time>2021-02-22T12:03:00Z</time>
      </trkpt>
      <trkpt lat="45.99688" lon="2.98024">
        <ele>558</ele>
        <time>2021-02-22T12:04:44Z</time>
      </trkpt>
      <trkpt lat="45.99614" lon="2.98027">
        <ele>567</ele>
        <time>2021-02-22T12:06:23Z</time>
      </trkpt>
      <trkpt lat="45.9958" lon="2.98044">
        <ele>571</ele>
        <time>2021-02-22T12:07:11Z</time>
      </trkpt>
      <trkpt lat="45.99518" lon="2.98042">
        <ele>574</ele>
        <time>2021-02-22T12:08:34Z</time>
      </trkpt>
      <trkpt lat="45.99515" lon="2.98042">
        <ele>575</ele>
        <time>2021-02-22T12:08:38Z</time>
      </trkpt>
      <trkpt lat="45.99512" lon="2.98042">
        <ele>575</ele>
        <time>2021-02-22T12:08:42Z</time>
      </trkpt>
      <trkpt lat="45.99483" lon="2.98036">
        <ele>577</ele>
        <time>2021-02-22T12:09:21Z</time>
      </trkpt>
      <trkpt lat="45.99471" lon="2.98031">
        <ele>577</ele>
        <time>2021-02-22T12:09:38Z</time>
      </trkpt>
      <trkpt lat="45.99424" lon="2.98024">
        <ele>580</ele>
        <time>2021-02-22T12:10:41Z</time>
      </trkpt>
      <trkpt lat="45.99376" lon="2.9802">
        <ele>584</ele>
        <time>2021-02-22T12:11:45Z</time>
      </trkpt>
      <trkpt lat="45.99326" lon="2.97989">
        <ele>587</ele>
        <time>2021-02-22T12:12:58Z</time>
      </trkpt>
      <trkpt lat="45.99284" lon="2.97955">
        <ele>591</ele>
        <time>2021-02-22T12:14:02Z</time>
      </trkpt>
      <trkpt lat="45.99261" lon="2.97931">
        <ele>592</ele>
        <time>2021-02-22T12:14:40Z</time>
      </trkpt>
      <trkpt lat="45.99224" lon="2.97885">
        <ele>591</ele>
        <time>2021-02-22T12:15:45Z</time>
      </trkpt>
      <trkpt lat="45.9923" lon="2.97818">
        <ele>587</ele>
        <time>2021-02-22T12:16:48Z</time>
      </trkpt>
      <trkpt lat="45.99253" lon="2.97737">
        <ele>582</ele>
        <time>2021-02-22T12:18:09Z</time>
      </trkpt>
      <trkpt lat="45.99279" lon="2.97554">
        <ele>567</ele>
        <time>2021-02-22T12:21:02Z</time>
      </trkpt>
      <trkpt lat="45.99268" lon="2.9749">
        <ele>563</ele>
        <time>2021-02-22T12:22:03Z</time>
      </trkpt>
      <trkpt lat="45.9927" lon="2.97485">
        <ele>563</ele>
        <time>2021-02-22T12:22:09Z</time>
      </trkpt>
      <trkpt lat="45.99264" lon="2.9744">
        <ele>560</ele>
        <time>2021-02-22T12:22:51Z</time>
      </trkpt>
      <trkpt lat="45.9927" lon="2.974">
        <ele>557</ele>
        <time>2021-02-22T12:23:29Z</time>
      </trkpt>
      <trkpt lat="45.99282" lon="2.97379">
        <ele>554</ele>
        <time>2021-02-22T12:23:54Z</time>
      </trkpt>
      <trkpt lat="45.99284" lon="2.97355">
        <ele>552</ele>
        <time>2021-02-22T12:24:17Z</time>
      </trkpt>
      <trkpt lat="45.99271" lon="2.9733">
        <ele>551</ele>
        <time>2021-02-22T12:24:46Z</time>
      </trkpt>
      <trkpt lat="45.99273" lon="2.97318">
        <ele>548</ele>
        <time>2021-02-22T12:24:57Z</time>
      </trkpt>
      <trkpt lat="45.99306" lon="2.9733">
        <ele>547</ele>
        <time>2021-02-22T12:25:42Z</time>
      </trkpt>
      <trkpt lat="45.99307" lon="2.97316">
        <ele>545</ele>
        <time>2021-02-22T12:25:55Z</time>
      </trkpt>
      <trkpt lat="45.99291" lon="2.97256">
        <ele>535</ele>
        <time>2021-02-22T12:26:55Z</time>
      </trkpt>
      <trkpt lat="45.99284" lon="2.97245">
        <ele>533</ele>
        <time>2021-02-22T12:27:09Z</time>
      </trkpt>
      <trkpt lat="45.99268" lon="2.97237">
        <ele>532</ele>
        <time>2021-02-22T12:27:31Z</time>
      </trkpt>
      <trkpt lat="45.99261" lon="2.97226">
        <ele>531</ele>
        <time>2021-02-22T12:27:45Z</time>
      </trkpt>
      <trkpt lat="45.99263" lon="2.97205">
        <ele>527</ele>
        <time>2021-02-22T12:28:05Z</time>
      </trkpt>
      <trkpt lat="45.9928" lon="2.97195">
        <ele>526</ele>
        <time>2021-02-22T12:28:29Z</time>
      </trkpt>
      <trkpt lat="45.99297" lon="2.97165">
        <ele>522</ele>
        <time>2021-02-22T12:29:05Z</time>
      </trkpt>
      <trkpt lat="45.993" lon="2.97143">
        <ele>521</ele>
        <time>2021-02-22T12:29:26Z</time>
      </trkpt>
      <trkpt lat="45.99296" lon="2.97117">
        <ele>520</ele>
        <time>2021-02-22T12:29:51Z</time>
      </trkpt>
      <trkpt lat="45.993" lon="2.97102">
        <ele>520</ele>
        <time>2021-02-22T12:30:06Z</time>
      </trkpt>
      <trkpt lat="45.99307" lon="2.97099">
        <ele>520</ele>
        <time>2021-02-22T12:30:15Z</time>
      </trkpt>
      <trkpt lat="45.99322" lon="2.9708">
        <ele>519</ele>
        <time>2021-02-22T12:30:42Z</time>
      </trkpt>
      <trkpt lat="45.9931" lon="2.9705">
        <ele>519</ele>
        <time>2021-02-22T12:31:14Z</time>
      </trkpt>
      <trkpt lat="45.99301" lon="2.96988">
        <ele>519</ele>
        <time>2021-02-22T12:32:13Z</time>
      </trkpt>
      <trkpt lat="45.99292" lon="2.96974">
        <ele>520</ele>
        <time>2021-02-22T12:32:31Z</time>
      </trkpt>
      <trkpt lat="45.99258" lon="2.96956">
        <ele>519</ele>
        <time>2021-02-22T12:33:19Z</time>
      </trkpt>
      <trkpt lat="45.99247" lon="2.96938">
        <ele>518</ele>
        <time>2021-02-22T12:33:41Z</time>
      </trkpt>
      <trkpt lat="45.99249" lon="2.96909">
        <ele>520</ele>
        <time>2021-02-22T12:34:08Z</time>
      </trkpt>
      <trkpt lat="45.99228" lon="2.96893">
        <ele>522</ele>
        <time>2021-02-22T12:34:40Z</time>
      </trkpt>
      <trkpt lat="45.99142" lon="2.96876">
        <ele>522</ele>
        <time>2021-02-22T12:36:36Z</time>
      </trkpt>
      <trkpt lat="45.99123" lon="2.96877">
        <ele>522</ele>
        <time>2021-02-22T12:37:01Z</time>
      </trkpt>
      <trkpt lat="45.99099" lon="2.96869">
        <ele>522</ele>
        <time>2021-02-22T12:37:34Z</time>
      </trkpt>
      <trkpt lat="45.9907" lon="2.96827">
        <ele>523</ele>
        <time>2021-02-22T12:38:29Z</time>
      </trkpt>
      <trkpt lat="45.99041" lon="2.96775">
        <ele>525</ele>
        <time>2021-02-22T12:39:31Z</time>
      </trkpt>
      <trkpt lat="45.99012" lon="2.96722">
        <ele>527</ele>
        <time>2021-02-22T12:40:33Z</time>
      </trkpt>
      <trkpt lat="45.98995" lon="2.96687">
        <ele>530</ele>
        <time>2021-02-22T12:41:13Z</time>
      </trkpt>
      <trkpt lat="45.98972" lon="2.96673">
        <ele>530</ele>
        <time>2021-02-22T12:41:46Z</time>
      </trkpt>
      <trkpt lat="45.9893" lon="2.96638">
        <ele>529</ele>
        <time>2021-02-22T12:42:51Z</time>
      </trkpt>
      <trkpt lat="45.98881" lon="2.96591">
        <ele>530</ele>
        <time>2021-02-22T12:44:10Z</time>
      </trkpt>
      <trkpt lat="45.98873" lon="2.9658">
        <ele>530</ele>
        <time>2021-02-22T12:44:24Z</time>
      </trkpt>
      <trkpt lat="45.98854" lon="2.96538">
        <ele>534</ele>
        <time>2021-02-22T12:45:11Z</time>
      </trkpt>
      <trkpt lat="45.98811" lon="2.96477">
        <ele>540</ele>
        <time>2021-02-22T12:46:31Z</time>
      </trkpt>
      <trkpt lat="45.98763" lon="2.9644">
        <ele>541</ele>
        <time>2021-02-22T12:47:44Z</time>
      </trkpt>
      <trkpt lat="45.98754" lon="2.96425">
        <ele>542</ele>
        <time>2021-02-22T12:48:02Z</time>
      </trkpt>
      <trkpt lat="45.98742" lon="2.96387">
        <ele>544</ele>
        <time>2021-02-22T12:48:41Z</time>
      </trkpt>
      <trkpt lat="45.9872" lon="2.96308">
        <ele>549</ele>
        <time>2021-02-22T12:50:00Z</time>
      </trkpt>
      <trkpt lat="45.98714" lon="2.96294">
        <ele>549</ele>
        <time>2021-02-22T12:50:15Z</time>
      </trkpt>
      <trkpt lat="45.98678" lon="2.96243">
        <ele>551</ele>
        <time>2021-02-22T12:51:23Z</time>
      </trkpt>
      <trkpt lat="45.98655" lon="2.96208">
        <ele>551</ele>
        <time>2021-02-22T12:52:07Z</time>
      </trkpt>
      <trkpt lat="45.98632" lon="2.9615">
        <ele>552</ele>
        <time>2021-02-22T12:53:09Z</time>
      </trkpt>
      <trkpt lat="45.98609" lon="2.96118">
        <ele>553</ele>
        <time>2021-02-22T12:53:52Z</time>
      </trkpt>
      <trkpt lat="45.98582" lon="2.96126">
        <ele>550</ele>
        <time>2021-02-22T12:54:29Z</time>
      </trkpt>
      <trkpt lat="45.98552" lon="2.96114">
        <ele>548</ele>
        <time>2021-02-22T12:55:10Z</time>
      </trkpt>
      <trkpt lat="45.98552" lon="2.96114">
        <ele>548</ele>
        <time>2021-02-22T12:55:10Z</time>
      </trkpt>
      <trkpt lat="45.98527" lon="2.96071">
        <ele>547</ele>
        <time>2021-02-22T12:56:02Z</time>
      </trkpt>
      <trkpt lat="45.98512" lon="2.96053">
        <ele>545</ele>
        <time>2021-02-22T12:56:28Z</time>
      </trkpt>
      <trkpt lat="45.98504" lon="2.96038">
        <ele>545</ele>
        <time>2021-02-22T12:56:46Z</time>
      </trkpt>
      <trkpt lat="45.98505" lon="2.95975">
        <ele>549</ele>
        <time>2021-02-22T12:57:44Z</time>
      </trkpt>
      <trkpt lat="45.98504" lon="2.95974">
        <ele>549</ele>
        <time>2021-02-22T12:57:46Z</time>
      </trkpt>
      <trkpt lat="45.98468" lon="2.95903">
        <ele>551</ele>
        <time>2021-02-22T12:59:07Z</time>
      </trkpt>
      <trkpt lat="45.98431" lon="2.95852">
        <ele>550</ele>
        <time>2021-02-22T13:00:16Z</time>
      </trkpt>
      <trkpt lat="45.98406" lon="2.95814">
        <ele>551</ele>
        <time>2021-02-22T13:01:04Z</time>
      </trkpt>
      <trkpt lat="45.98402" lon="2.95785">
        <ele>552</ele>
        <time>2021-02-22T13:01:32Z</time>
      </trkpt>
      <trkpt lat="45.98407" lon="2.95732">
        <ele>556</ele>
        <time>2021-02-22T13:02:21Z</time>
      </trkpt>
      <trkpt lat="45.9841" lon="2.9569">
        <ele>557</ele>
        <time>2021-02-22T13:03:00Z</time>
      </trkpt>
      <trkpt lat="45.98388" lon="2.95636">
        <ele>557</ele>
        <time>2021-02-22T13:03:59Z</time>
      </trkpt>
      <trkpt lat="45.98365" lon="2.95593">
        <ele>560</ele>
        <time>2021-02-22T13:04:49Z</time>
      </trkpt>
      <trkpt lat="45.98326" lon="2.9554">
        <ele>562</ele>
        <time>2021-02-22T13:06:00Z</time>
      </trkpt>
      <trkpt lat="45.98318" lon="2.95508">
        <ele>564</ele>
        <time>2021-02-22T13:06:32Z</time>
      </trkpt>
      <trkpt lat="45.98314" lon="2.95478">
        <ele>567</ele>
        <time>2021-02-22T13:07:00Z</time>
      </trkpt>
      <trkpt lat="45.98329" lon="2.95403">
        <ele>571</ele>
        <time>2021-02-22T13:08:13Z</time>
      </trkpt>
      <trkpt lat="45.98358" lon="2.95285">
        <ele>577</ele>
        <time>2021-02-22T13:10:09Z</time>
      </trkpt>
      <trkpt lat="45.98349" lon="2.95283">
        <ele>577</ele>
        <time>2021-02-22T13:10:21Z</time>
      </trkpt>
      <trkpt lat="45.98335" lon="2.95285">
        <ele>577</ele>
        <time>2021-02-22T13:10:40Z</time>
      </trkpt>
      <trkpt lat="45.98302" lon="2.95265">
        <ele>577</ele>
        <time>2021-02-22T13:11:27Z</time>
      </trkpt>
      <trkpt lat="45.98286" lon="2.95245">
        <ele>578</ele>
        <time>2021-02-22T13:11:56Z</time>
      </trkpt>
      <trkpt lat="45.98273" lon="2.95221">
        <ele>578</ele>
        <time>2021-02-22T13:12:24Z</time>
      </trkpt>
      <trkpt lat="45.98266" lon="2.95189">
        <ele>579</ele>
        <time>2021-02-22T13:12:55Z</time>
      </trkpt>
      <trkpt lat="45.98243" lon="2.95145">
        <ele>580</ele>
        <time>2021-02-22T13:13:46Z</time>
      </trkpt>
      <trkpt lat="45.98218" lon="2.95098">
        <ele>581</ele>
        <time>2021-02-22T13:14:41Z</time>
      </trkpt>
      <trkpt lat="45.98196" lon="2.95067">
        <ele>581</ele>
        <time>2021-02-22T13:15:22Z</time>
      </trkpt>
      <trkpt lat="45.98187" lon="2.95064">
        <ele>580</ele>
        <time>2021-02-22T13:15:34Z</time>
      </trkpt>
      <trkpt lat="45.98169" lon="2.95089">
        <ele>578</ele>
        <time>2021-02-22T13:16:08Z</time>
      </trkpt>
      <trkpt lat="45.9816" lon="2.95084">
        <ele>578</ele>
        <time>2021-02-22T13:16:21Z</time>
      </trkpt>
      <trkpt lat="45.98095" lon="2.95016">
        <ele>575</ele>
        <time>2021-02-22T13:18:08Z</time>
      </trkpt>
      <trkpt lat="45.98075" lon="2.9499">
        <ele>574</ele>
        <time>2021-02-22T13:18:44Z</time>
      </trkpt>
      <trkpt lat="45.98067" lon="2.9498">
        <ele>574</ele>
        <time>2021-02-22T13:18:58Z</time>
      </trkpt>
      <trkpt lat="45.98041" lon="2.95003">
        <ele>573</ele>
        <time>2021-02-22T13:19:39Z</time>
      </trkpt>
      <trkpt lat="45.98011" lon="2.94997">
        <ele>572</ele>
        <time>2021-02-22T13:20:19Z</time>
      </trkpt>
      <trkpt lat="45.97994" lon="2.95002">
        <ele>572</ele>
        <time>2021-02-22T13:20:42Z</time>
      </trkpt>
      <trkpt lat="45.97978" lon="2.95009">
        <ele>572</ele>
        <time>2021-02-22T13:21:05Z</time>
      </trkpt>
      <trkpt lat="45.97954" lon="2.95011">
        <ele>571</ele>
        <time>2021-02-22T13:21:37Z</time>
      </trkpt>
      <trkpt lat="45.97926" lon="2.95016">
        <ele>570</ele>
        <time>2021-02-22T13:22:14Z</time>
      </trkpt>
      <trkpt lat="45.97897" lon="2.95051">
        <ele>565</ele>
        <time>2021-02-22T13:23:05Z</time>
      </trkpt>
      <trkpt lat="45.97873" lon="2.95051">
        <ele>562</ele>
        <time>2021-02-22T13:23:37Z</time>
      </trkpt>
      <trkpt lat="45.9786" lon="2.95056">
        <ele>561</ele>
        <time>2021-02-22T13:23:55Z</time>
      </trkpt>
      <trkpt lat="45.97854" lon="2.95071">
        <ele>559</ele>
        <time>2021-02-22T13:24:11Z</time>
      </trkpt>
      <trkpt lat="45.97863" lon="2.95142">
        <ele>558</ele>
        <time>2021-02-22T13:25:18Z</time>
      </trkpt>
      <trkpt lat="45.97869" lon="2.95192">
        <ele>558</ele>
        <time>2021-02-22T13:26:05Z</time>
      </trkpt>
      <trkpt lat="45.97845" lon="2.95219">
        <ele>555</ele>
        <time>2021-02-22T13:26:46Z</time>
      </trkpt>
      <trkpt lat="45.97882" lon="2.95284">
        <ele>555</ele>
        <time>2021-02-22T13:28:03Z</time>
      </trkpt>
      <trkpt lat="45.97881" lon="2.95353">
        <ele>553</ele>
        <time>2021-02-22T13:29:07Z</time>
      </trkpt>
      <trkpt lat="45.97874" lon="2.95371">
        <ele>555</ele>
        <time>2021-02-22T13:29:27Z</time>
      </trkpt>
      <trkpt lat="45.9789" lon="2.95416">
        <ele>557</ele>
        <time>2021-02-22T13:30:13Z</time>
      </trkpt>
      <trkpt lat="45.97882" lon="2.95431">
        <ele>558</ele>
        <time>2021-02-22T13:30:31Z</time>
      </trkpt>
      <trkpt lat="45.97872" lon="2.95445">
        <ele>560</ele>
        <time>2021-02-22T13:30:50Z</time>
      </trkpt>
      <trkpt lat="45.97863" lon="2.95473">
        <ele>562</ele>
        <time>2021-02-22T13:31:18Z</time>
      </trkpt>
      <trkpt lat="45.97802" lon="2.95521">
        <ele>576</ele>
        <time>2021-02-22T13:32:51Z</time>
      </trkpt>
      <trkpt lat="45.97816" lon="2.95548">
        <ele>577</ele>
        <time>2021-02-22T13:33:22Z</time>
      </trkpt>
      <trkpt lat="45.97809" lon="2.95561">
        <ele>580</ele>
        <time>2021-02-22T13:33:37Z</time>
      </trkpt>
      <trkpt lat="45.9781" lon="2.95603">
        <ele>585</ele>
        <time>2021-02-22T13:34:16Z</time>
      </trkpt>
      <trkpt lat="45.97782" lon="2.95628">
        <ele>593</ele>
        <time>2021-02-22T13:35:00Z</time>
      </trkpt>
      <trkpt lat="45.97783" lon="2.95643">
        <ele>595</ele>
        <time>2021-02-22T13:35:14Z</time>
      </trkpt>
      <trkpt lat="45.97792" lon="2.95677">
        <ele>598</ele>
        <time>2021-02-22T13:35:48Z</time>
      </trkpt>
      <trkpt lat="45.97803" lon="2.95702">
        <ele>600</ele>
        <time>2021-02-22T13:36:16Z</time>
      </trkpt>
      <trkpt lat="45.97807" lon="2.95757">
        <ele>605</ele>
        <time>2021-02-22T13:37:07Z</time>
      </trkpt>
      <trkpt lat="45.97802" lon="2.95786">
        <ele>607</ele>
        <time>2021-02-22T13:37:35Z</time>
      </trkpt>
      <trkpt lat="45.97799" lon="2.95803">
        <ele>608</ele>
        <time>2021-02-22T13:37:51Z</time>
      </trkpt>
      <trkpt lat="45.97785" lon="2.95841">
        <ele>610</ele>
        <time>2021-02-22T13:38:31Z</time>
      </trkpt>
      <trkpt lat="45.97763" lon="2.95856">
        <ele>611</ele>
        <time>2021-02-22T13:39:03Z</time>
      </trkpt>
      <trkpt lat="45.97738" lon="2.95861">
        <ele>613</ele>
        <time>2021-02-22T13:39:37Z</time>
      </trkpt>
      <trkpt lat="45.9773" lon="2.95859">
        <ele>613</ele>
        <time>2021-02-22T13:39:48Z</time>
      </trkpt>
      <trkpt lat="45.97719" lon="2.95859">
        <ele>614</ele>
        <time>2021-02-22T13:40:02Z</time>
      </trkpt>
      <trkpt lat="45.97707" lon="2.95884">
        <ele>613</ele>
        <time>2021-02-22T13:40:31Z</time>
      </trkpt>
      <trkpt lat="45.97672" lon="2.959">
        <ele>616</ele>
        <time>2021-02-22T13:41:20Z</time>
      </trkpt>
      <trkpt lat="45.97672" lon="2.959">
        <ele>616</ele>
        <time>2021-02-22T13:41:20Z</time>
      </trkpt>
      <trkpt lat="45.9758" lon="2.95943">
        <ele>622</ele>
        <time>2021-02-22T13:43:29Z</time>
      </trkpt>
      <trkpt lat="45.97579" lon="2.95946">
        <ele>623</ele>
        <time>2021-02-22T13:43:32Z</time>
      </trkpt>
      <trkpt lat="45.97597" lon="2.9598">
        <ele>621</ele>
        <time>2021-02-22T13:44:11Z</time>
      </trkpt>
      <trkpt lat="45.97617" lon="2.96001">
        <ele>620</ele>
        <time>2021-02-22T13:44:44Z</time>
      </trkpt>
      <trkpt lat="45.9766" lon="2.96055">
        <ele>619</ele>
        <time>2021-02-22T13:46:01Z</time>
      </trkpt>
      <trkpt lat="45.97689" lon="2.96102">
        <ele>617</ele>
        <time>2021-02-22T13:46:59Z</time>
      </trkpt>
      <trkpt lat="45.97697" lon="2.96116">
        <ele>617</ele>
        <time>2021-02-22T13:47:16Z</time>
      </trkpt>
      <trkpt lat="45.97707" lon="2.96167">
        <ele>617</ele>
        <time>2021-02-22T13:48:05Z</time>
      </trkpt>
      <trkpt lat="45.97717" lon="2.96194">
        <ele>617</ele>
        <time>2021-02-22T13:48:33Z</time>
      </trkpt>
      <trkpt lat="45.97721" lon="2.96211">
        <ele>617</ele>
        <time>2021-02-22T13:48:50Z</time>
      </trkpt>
      <trkpt lat="45.97733" lon="2.96227">
        <ele>617</ele>
        <time>2021-02-22T13:49:12Z</time>
      </trkpt>
      <trkpt lat="45.9777" lon="2.96284">
        <ele>616</ele>
        <time>2021-02-22T13:50:24Z</time>
      </trkpt>
      <trkpt lat="45.97803" lon="2.96352">
        <ele>614</ele>
        <time>2021-02-22T13:51:41Z</time>
      </trkpt>
      <trkpt lat="45.97823" lon="2.9643">
        <ele>611</ele>
        <time>2021-02-22T13:52:58Z</time>
      </trkpt>
      <trkpt lat="45.97837" lon="2.96462">
        <ele>610</ele>
        <time>2021-02-22T13:53:33Z</time>
      </trkpt>
      <trkpt lat="45.97854" lon="2.96494">
        <ele>609</ele>
        <time>2021-02-22T13:54:10Z</time>
      </trkpt>
      <trkpt lat="45.97904" lon="2.96546">
        <ele>605</ele>
        <time>2021-02-22T13:55:33Z</time>
      </trkpt>
      <trkpt lat="45.97901" lon="2.96663">
        <ele>599</ele>
        <time>2021-02-22T13:57:21Z</time>
      </trkpt>
      <trkpt lat="45.97906" lon="2.96688">
        <ele>596</ele>
        <time>2021-02-22T13:57:45Z</time>
      </trkpt>
      <trkpt lat="45.97937" lon="2.96701">
        <ele>595</ele>
        <time>2021-02-22T13:58:29Z</time>
      </trkpt>
      <trkpt lat="45.97978" lon="2.96741">
        <ele>592</ele>
        <time>2021-02-22T13:59:35Z</time>
      </trkpt>
      <trkpt lat="45.97989" lon="2.96763">
        <ele>590</ele>
        <time>2021-02-22T14:00:00Z</time>
      </trkpt>
      <trkpt lat="45.97994" lon="2.96797">
        <ele>586</ele>
        <time>2021-02-22T14:00:32Z</time>
      </trkpt>
      <trkpt lat="45.97999" lon="2.96823">
        <ele>583</ele>
        <time>2021-02-22T14:00:57Z</time>
      </trkpt>
      <trkpt lat="45.98016" lon="2.96846">
        <ele>583</ele>
        <time>2021-02-22T14:01:28Z</time>
      </trkpt>
      <trkpt lat="45.98032" lon="2.96864">
        <ele>584</ele>
        <time>2021-02-22T14:01:55Z</time>
      </trkpt>
      <trkpt lat="45.98053" lon="2.96903">
        <ele>582</ele>
        <time>2021-02-22T14:02:41Z</time>
      </trkpt>
      <trkpt lat="45.98081" lon="2.96932">
        <ele>583</ele>
        <time>2021-02-22T14:03:27Z</time>
      </trkpt>
      <trkpt lat="45.98161" lon="2.96992">
        <ele>580</ele>
        <time>2021-02-22T14:05:27Z</time>
      </trkpt>
      <trkpt lat="45.98186" lon="2.97014">
        <ele>580</ele>
        <time>2021-02-22T14:06:07Z</time>
      </trkpt>
      <trkpt lat="45.982" lon="2.97035">
        <ele>580</ele>
        <time>2021-02-22T14:06:34Z</time>
      </trkpt>
      <trkpt lat="45.98186" lon="2.97101">
        <ele>578</ele>
        <time>2021-02-22T14:07:38Z</time>
      </trkpt>
      <trkpt lat="45.98184" lon="2.97116">
        <ele>579</ele>
        <time>2021-02-22T14:07:52Z</time>
      </trkpt>
      <trkpt lat="45.98203" lon="2.97178">
        <ele>584</ele>
        <time>2021-02-22T14:08:55Z</time>
      </trkpt>
      <trkpt lat="45.98193" lon="2.97192">
        <ele>586</ele>
        <time>2021-02-22T14:09:13Z</time>
      </trkpt>
      <trkpt lat="45.98164" lon="2.97209">
        <ele>588</ele>
        <time>2021-02-22T14:09:55Z</time>
      </trkpt>
      <trkpt lat="45.98128" lon="2.97247">
        <ele>591</ele>
        <time>2021-02-22T14:10:55Z</time>
      </trkpt>
      <trkpt lat="45.98098" lon="2.97268">
        <ele>592</ele>
        <time>2021-02-22T14:11:39Z</time>
      </trkpt>
      <trkpt lat="45.98065" lon="2.97294">
        <ele>597</ele>
        <time>2021-02-22T14:12:29Z</time>
      </trkpt>
      <trkpt lat="45.98028" lon="2.97385">
        <ele>602</ele>
        <time>2021-02-22T14:14:07Z</time>
      </trkpt>
      <trkpt lat="45.98011" lon="2.97491">
        <ele>605</ele>
        <time>2021-02-22T14:15:48Z</time>
      </trkpt>
      <trkpt lat="45.97997" lon="2.97543">
        <ele>606</ele>
        <time>2021-02-22T14:16:40Z</time>
      </trkpt>
      <trkpt lat="45.9797" lon="2.97587">
        <ele>611</ele>
        <time>2021-02-22T14:17:34Z</time>
      </trkpt>
      <trkpt lat="45.9797" lon="2.97617">
        <ele>611</ele>
        <time>2021-02-22T14:18:02Z</time>
      </trkpt>
      <trkpt lat="45.98031" lon="2.97656">
        <ele>613</ele>
        <time>2021-02-22T14:19:31Z</time>
      </trkpt>
      <trkpt lat="45.9808" lon="2.97785">
        <ele>612</ele>
        <time>2021-02-22T14:21:47Z</time>
      </trkpt>
      <trkpt lat="45.98089" lon="2.97831">
        <ele>611</ele>
        <time>2021-02-22T14:22:32Z</time>
      </trkpt>
      <trkpt lat="45.98103" lon="2.97861">
        <ele>612</ele>
        <time>2021-02-22T14:23:05Z</time>
      </trkpt>
      <trkpt lat="45.98106" lon="2.9792">
        <ele>614</ele>
        <time>2021-02-22T14:24:00Z</time>
      </trkpt>
      <trkpt lat="45.98108" lon="2.97961">
        <ele>617</ele>
        <time>2021-02-22T14:24:38Z</time>
      </trkpt>
      <trkpt lat="45.98181" lon="2.98069">
        <ele>621</ele>
        <time>2021-02-22T14:26:58Z</time>
      </trkpt>
      <trkpt lat="45.98226" lon="2.98183">
        <ele>628</ele>
        <time>2021-02-22T14:28:59Z</time>
      </trkpt>
      <trkpt lat="45.98263" lon="2.98209">
        <ele>629</ele>
        <time>2021-02-22T14:29:54Z</time>
      </trkpt>
      <trkpt lat="45.98273" lon="2.98237">
        <ele>631</ele>
        <time>2021-02-22T14:30:23Z</time>
      </trkpt>
      <trkpt lat="45.98369" lon="2.98295">
        <ele>636</ele>
        <time>2021-02-22T14:32:42Z</time>
      </trkpt>
      <trkpt lat="45.98394" lon="2.98339">
        <ele>639</ele>
        <time>2021-02-22T14:33:35Z</time>
      </trkpt>
      <trkpt lat="45.98404" lon="2.98361">
        <ele>641</ele>
        <time>2021-02-22T14:34:00Z</time>
      </trkpt>
      <trkpt lat="45.98406" lon="2.98377">
        <ele>641</ele>
        <time>2021-02-22T14:34:15Z</time>
      </trkpt>
      <trkpt lat="45.98433" lon="2.98438">
        <ele>645</ele>
        <time>2021-02-22T14:35:22Z</time>
      </trkpt>
      <trkpt lat="45.98485" lon="2.9851">
        <ele>649</ele>
        <time>2021-02-22T14:36:58Z</time>
      </trkpt>
      <trkpt lat="45.98497" lon="2.98575">
        <ele>651</ele>
        <time>2021-02-22T14:38:00Z</time>
      </trkpt>
      <trkpt lat="45.98534" lon="2.98648">
        <ele>653</ele>
        <time>2021-02-22T14:39:24Z</time>
      </trkpt>
      <trkpt lat="45.98537" lon="2.98651">
        <ele>653</ele>
        <time>2021-02-22T14:39:29Z</time>
      </trkpt>
      <trkpt lat="45.98494" lon="2.98758">
        <ele>651</ele>
        <time>2021-02-22T14:41:24Z</time>
      </trkpt>
      <trkpt lat="45.98487" lon="2.98753">
        <ele>651</ele>
        <time>2021-02-22T14:41:34Z</time>
      </trkpt>
      <trkpt lat="45.98438" lon="2.98862">
        <ele>657</ele>
        <time>2021-02-22T14:43:34Z</time>
      </trkpt>
      <trkpt lat="45.98466" lon="2.98928">
        <ele>660</ele>
        <time>2021-02-22T14:44:46Z</time>
      </trkpt>
      <trkpt lat="45.98477" lon="2.98979">
        <ele>665</ele>
        <time>2021-02-22T14:45:36Z</time>
      </trkpt>
      <trkpt lat="45.98454" lon="2.99017">
        <ele>664</ele>
        <time>2021-02-22T14:46:22Z</time>
      </trkpt>
      <trkpt lat="45.98481" lon="2.98963">
        <ele>664</ele>
        <time>2021-02-22T14:47:24Z</time>
      </trkpt>
      <trkpt lat="45.98447" lon="2.98888">
        <ele>658</ele>
        <time>2021-02-22T14:48:47Z</time>
      </trkpt>
      <trkpt lat="45.98438" lon="2.98846">
        <ele>656</ele>
        <time>2021-02-22T14:49:28Z</time>
      </trkpt>
      <trkpt lat="45.98336" lon="2.98741">
        <ele>645</ele>
        <time>2021-02-22T14:52:15Z</time>
      </trkpt>
      <trkpt lat="45.98274" lon="2.98675">
        <ele>640</ele>
        <time>2021-02-22T14:53:58Z</time>
      </trkpt>
      <trkpt lat="45.98215" lon="2.98662">
        <ele>636</ele>
        <time>2021-02-22T14:55:18Z</time>
      </trkpt>
      <trkpt lat="45.98141" lon="2.98675">
        <ele>633</ele>
        <time>2021-02-22T14:56:57Z</time>
      </trkpt>
      <trkpt lat="45.98072" lon="2.98665">
        <ele>636</ele>
        <time>2021-02-22T14:58:30Z</time>
      </trkpt>
      <trkpt lat="45.98058" lon="2.98626">
        <ele>638</ele>
        <time>2021-02-22T14:59:10Z</time>
      </trkpt>
      <trkpt lat="45.98016" lon="2.98656">
        <ele>643</ele>
        <time>2021-02-22T15:00:13Z</time>
      </trkpt>
      <trkpt lat="45.9798" lon="2.98691">
        <ele>644</ele>
        <time>2021-02-22T15:01:11Z</time>
      </trkpt>
      <trkpt lat="45.97939" lon="2.987">
        <ele>648</ele>
        <time>2021-02-22T15:02:06Z</time>
      </trkpt>
      <trkpt lat="45.97904" lon="2.98732">
        <ele>649</ele>
        <time>2021-02-22T15:03:02Z</time>
      </trkpt>
      <trkpt lat="45.97888" lon="2.98744">
        <ele>650</ele>
        <time>2021-02-22T15:03:26Z</time>
      </trkpt>
      <trkpt lat="45.97852" lon="2.98782">
        <ele>649</ele>
        <time>2021-02-22T15:04:25Z</time>
      </trkpt>
      <trkpt lat="45.97841" lon="2.98823">
        <ele>645</ele>
        <time>2021-02-22T15:05:06Z</time>
      </trkpt>
      <trkpt lat="45.97812" lon="2.98841">
        <ele>647</ele>
        <time>2021-02-22T15:05:48Z</time>
      </trkpt>
      <trkpt lat="45.978" lon="2.9887">
        <ele>645</ele>
        <time>2021-02-22T15:06:20Z</time>
      </trkpt>
      <trkpt lat="45.97801" lon="2.98907">
        <ele>642</ele>
        <time>2021-02-22T15:06:54Z</time>
      </trkpt>
      <trkpt lat="45.97773" lon="2.98945">
        <ele>644</ele>
        <time>2021-02-22T15:07:45Z</time>
      </trkpt>
      <trkpt lat="45.97718" lon="2.98931">
        <ele>653</ele>
        <time>2021-02-22T15:09:00Z</time>
      </trkpt>
      <trkpt lat="45.97716" lon="2.98978">
        <ele>655</ele>
        <time>2021-02-22T15:09:43Z</time>
      </trkpt>
      <trkpt lat="45.97701" lon="2.99001">
        <ele>659</ele>
        <time>2021-02-22T15:10:13Z</time>
      </trkpt>
      <trkpt lat="45.97701" lon="2.98996">
        <ele>659</ele>
        <time>2021-02-22T15:10:17Z</time>
      </trkpt>
      <trkpt lat="45.97656" lon="2.98948">
        <ele>665</ele>
        <time>2021-02-22T15:11:32Z</time>
      </trkpt>
      <trkpt lat="45.97578" lon="2.98939">
        <ele>672</ele>
        <time>2021-02-22T15:13:17Z</time>
      </trkpt>
      <trkpt lat="45.97473" lon="2.98922">
        <ele>680</ele>
        <time>2021-02-22T15:15:38Z</time>
      </trkpt>
      <trkpt lat="45.97395" lon="2.98908">
        <ele>685</ele>
        <time>2021-02-22T15:17:22Z</time>
      </trkpt>
      <trkpt lat="45.97323" lon="2.98954">
        <ele>696</ele>
        <time>2021-02-22T15:19:08Z</time>
      </trkpt>
      <trkpt lat="45.97235" lon="2.98879">
        <ele>699</ele>
        <time>2021-02-22T15:21:24Z</time>
      </trkpt>
      <trkpt lat="45.97205" lon="2.98787">
        <ele>696</ele>
        <time>2021-02-22T15:22:58Z</time>
      </trkpt>
      <trkpt lat="45.97178" lon="2.9875">
        <ele>696</ele>
        <time>2021-02-22T15:23:48Z</time>
      </trkpt>
      <trkpt lat="45.97139" lon="2.98705">
        <ele>694</ele>
        <time>2021-02-22T15:24:55Z</time>
      </trkpt>
      <trkpt lat="45.97112" lon="2.98659">
        <ele>692</ele>
        <time>2021-02-22T15:25:51Z</time>
      </trkpt>
      <trkpt lat="45.97066" lon="2.98635">
        <ele>692</ele>
        <time>2021-02-22T15:26:56Z</time>
      </trkpt>
      <trkpt lat="45.97019" lon="2.98583">
        <ele>688</ele>
        <time>2021-02-22T15:28:15Z</time>
      </trkpt>
      <trkpt lat="45.96986" lon="2.98552">
        <ele>686</ele>
        <time>2021-02-22T15:29:08Z</time>
      </trkpt>
      <trkpt lat="45.96951" lon="2.985">
        <ele>683</ele>
        <time>2021-02-22T15:30:15Z</time>
      </trkpt>
      <trkpt lat="45.96948" lon="2.98421">
        <ele>681</ele>
        <time>2021-02-22T15:31:28Z</time>
      </trkpt>
      <trkpt lat="45.96929" lon="2.98329">
        <ele>681</ele>
        <time>2021-02-22T15:32:57Z</time>
      </trkpt>
      <trkpt lat="45.96899" lon="2.98321">
        <ele>682</ele>
        <time>2021-02-22T15:33:38Z</time>
      </trkpt>
      <trkpt lat="45.96809" lon="2.98382">
        <ele>685</ele>
        <time>2021-02-22T15:35:51Z</time>
      </trkpt>
      <trkpt lat="45.96684" lon="2.98675">
        <ele>688</ele>
        <time>2021-02-22T15:41:09Z</time>
      </trkpt>
      <trkpt lat="45.96658" lon="2.98705">
        <ele>690</ele>
        <time>2021-02-22T15:41:54Z</time>
      </trkpt>
      <trkpt lat="45.96631" lon="2.98705">
        <ele>690</ele>
        <time>2021-02-22T15:42:30Z</time>
      </trkpt>
      <trkpt lat="45.96514" lon="2.98803">
        <ele>696</ele>
        <time>2021-02-22T15:45:31Z</time>
      </trkpt>
      <trkpt lat="45.9651" lon="2.98832">
        <ele>697</ele>
        <time>2021-02-22T15:45:58Z</time>
      </trkpt>
      <trkpt lat="45.9654" lon="2.98913">
        <ele>699</ele>
        <time>2021-02-22T15:47:23Z</time>
      </trkpt>
      <trkpt lat="45.9654" lon="2.99002">
        <ele>705</ele>
        <time>2021-02-22T15:48:46Z</time>
      </trkpt>
      <trkpt lat="45.96504" lon="2.99195">
        <ele>723</ele>
        <time>2021-02-22T15:51:51Z</time>
      </trkpt>
      <trkpt lat="45.96479" lon="2.99284">
        <ele>730</ele>
        <time>2021-02-22T15:53:20Z</time>
      </trkpt>
      <trkpt lat="45.96422" lon="2.9935">
        <ele>735</ele>
        <time>2021-02-22T15:54:58Z</time>
      </trkpt>
      <trkpt lat="45.96572" lon="2.99388">
        <ele>733</ele>
        <time>2021-02-22T15:58:21Z</time>
      </trkpt>
      <trkpt lat="45.96638" lon="2.9942">
        <ele>733</ele>
        <time>2021-02-22T15:59:54Z</time>
      </trkpt>
      <trkpt lat="45.96673" lon="2.99415">
        <ele>731</ele>
        <time>2021-02-22T16:00:41Z</time>
      </trkpt>
      <trkpt lat="45.96725" lon="2.99444">
        <ele>728</ele>
        <time>2021-02-22T16:01:55Z</time>
      </trkpt>
      <trkpt lat="45.96788" lon="2.99482">
        <ele>726</ele>
        <time>2021-02-22T16:03:27Z</time>
      </trkpt>
      <trkpt lat="45.96878" lon="2.99494">
        <ele>722</ele>
        <time>2021-02-22T16:05:27Z</time>
      </trkpt>
      <trkpt lat="45.9696" lon="2.99529">
        <ele>723</ele>
        <time>2021-02-22T16:07:21Z</time>
      </trkpt>
      <trkpt lat="45.9683" lon="2.99605">
        <ele>729</ele>
        <time>2021-02-22T16:10:29Z</time>
      </trkpt>
      <trkpt lat="45.97069" lon="2.99768">
        <ele>731</ele>
        <time>2021-02-22T16:16:22Z</time>
      </trkpt>
      <trkpt lat="45.97299" lon="2.99948">
        <ele>724</ele>
        <time>2021-02-22T16:22:11Z</time>
      </trkpt>
      <trkpt lat="45.97433" lon="3.00047">
        <ele>709</ele>
        <time>2021-02-22T16:25:32Z</time>
      </trkpt>
      <trkpt lat="45.97254" lon="3.00257">
        <ele>699</ele>
        <time>2021-02-22T16:30:40Z</time>
      </trkpt>
      <trkpt lat="45.97555" lon="3.00176">
        <ele>687</ele>
        <time>2021-02-22T16:37:29Z</time>
      </trkpt>
      <trkpt lat="45.97639" lon="3.0012">
        <ele>685</ele>
        <time>2021-02-22T16:39:32Z</time>
      </trkpt>
      <trkpt lat="45.97779" lon="3.00171">
        <ele>677</ele>
        <time>2021-02-22T16:42:45Z</time>
      </trkpt>
      <trkpt lat="45.97836" lon="3.00206">
        <ele>670</ele>
        <time>2021-02-22T16:44:08Z</time>
      </trkpt>
      <trkpt lat="45.97937" lon="3.00343">
        <ele>661</ele>
        <time>2021-02-22T16:47:13Z</time>
      </trkpt>
      <trkpt lat="45.98041" lon="3.00189">
        <ele>678</ele>
        <time>2021-02-22T16:50:32Z</time>
      </trkpt>
      <trkpt lat="45.98122" lon="3.0009">
        <ele>692</ele>
        <time>2021-02-22T16:52:54Z</time>
      </trkpt>
      <trkpt lat="45.98175" lon="3.0009">
        <ele>695</ele>
        <time>2021-02-22T16:54:05Z</time>
      </trkpt>
      <trkpt lat="45.98181" lon="3.00043">
        <ele>698</ele>
        <time>2021-02-22T16:54:49Z</time>
      </trkpt>
      <trkpt lat="45.98232" lon="2.99944">
        <ele>705</ele>
        <time>2021-02-22T16:56:43Z</time>
      </trkpt>
      <trkpt lat="45.98294" lon="3.00022">
        <ele>701</ele>
        <time>2021-02-22T16:58:33Z</time>
      </trkpt>
      <trkpt lat="45.98477" lon="3.00114">
        <ele>701</ele>
        <time>2021-02-22T17:02:52Z</time>
      </trkpt>
      <trkpt lat="45.98574" lon="3.00109">
        <ele>697</ele>
        <time>2021-02-22T17:05:01Z</time>
      </trkpt>
      <trkpt lat="45.98681" lon="3.00193">
        <ele>687</ele>
        <time>2021-02-22T17:07:44Z</time>
      </trkpt>
      <trkpt lat="45.98844" lon="3.00329">
        <ele>673</ele>
        <time>2021-02-22T17:11:55Z</time>
      </trkpt>
      <trkpt lat="45.98842" lon="3.00196">
        <ele>670</ele>
        <time>2021-02-22T17:13:59Z</time>
      </trkpt>
      <trkpt lat="45.98778" lon="3.00119">
        <ele>669</ele>
        <time>2021-02-22T17:15:50Z</time>
      </trkpt>
      <trkpt lat="45.98959" lon="2.99979">
        <ele>645</ele>
        <time>2021-02-22T17:20:24Z</time>
      </trkpt>
      <trkpt lat="45.99037" lon="2.99915">
        <ele>635</ele>
        <time>2021-02-22T17:22:24Z</time>
      </trkpt>
      <trkpt lat="45.99018" lon="2.998">
        <ele>630</ele>
        <time>2021-02-22T17:24:14Z</time>
      </trkpt>
      <trkpt lat="45.99135" lon="2.99841">
        <ele>625</ele>
        <time>2021-02-22T17:26:54Z</time>
      </trkpt>
      <trkpt lat="45.99138" lon="2.99872">
        <ele>626</ele>
        <time>2021-02-22T17:27:23Z</time>
      </trkpt>
      <trkpt lat="45.99202" lon="2.99872">
        <ele>623</ele>
        <time>2021-02-22T17:28:49Z</time>
      </trkpt>
      <trkpt lat="45.99198" lon="2.9991">
        <ele>624</ele>
        <time>2021-02-22T17:29:24Z</time>
      </trkpt>
      <trkpt lat="45.9923" lon="2.99928">
        <ele>624</ele>
        <time>2021-02-22T17:30:10Z</time>
      </trkpt>
      <trkpt lat="45.99232" lon="3.00022">
        <ele>632</ele>
        <time>2021-02-22T17:31:37Z</time>
      </trkpt>
      <trkpt lat="45.99314" lon="2.99959">
        <ele>624</ele>
        <time>2021-02-22T17:33:41Z</time>
      </trkpt>
      <trkpt lat="45.99351" lon="2.99849">
        <ele>619</ele>
        <time>2021-02-22T17:35:35Z</time>
      </trkpt>
      <trkpt lat="45.99356" lon="2.99936">
        <ele>622</ele>
        <time>2021-02-22T17:36:56Z</time>
      </trkpt>
      <trkpt lat="45.9942" lon="2.99999">
        <ele>628</ele>
        <time>2021-02-22T17:38:39Z</time>
      </trkpt>
      <trkpt lat="45.99557" lon="3.00056">
        <ele>628</ele>
        <time>2021-02-22T17:41:49Z</time>
      </trkpt>
    </trkseg>
  </trk>
</gpx>